createdAt,value
2019-03-06T00:00:33.284Z,7.40
2019-03-06T00:03:01.947Z,6.17
2019-03-06T00:05:30.588Z,5.70
2019-03-06T00:07:59.138Z,6.67
2019-03-06T00:10:31.281Z,5.80
2019-03-06T00:12:59.901Z,6.30
2019-03-06T00:15:28.777Z,6.83
2019-03-06T00:17:57.329Z,7.87
2019-03-06T00:20:26.008Z,8.97
2019-03-06T00:22:54.641Z,9.43
2019-03-06T00:25:23.316Z,10.37
2019-03-06T00:27:51.950Z,11.03
2019-03-06T00:30:20.921Z,11.20
2019-03-06T00:32:49.555Z,10.17
2019-03-06T00:35:34.567Z,10.80
2019-03-06T00:38:03.174Z,11.93
2019-03-06T00:40:48.331Z,11.33
2019-03-06T00:43:17.017Z,11.80
2019-03-06T00:45:45.647Z,11.63
2019-03-06T00:48:14.317Z,14.90
2019-03-06T00:50:42.954Z,20.40
2019-03-06T00:53:11.631Z,18.63
2019-03-06T00:55:40.306Z,16.67
2019-03-06T00:58:08.939Z,15.33
2019-03-06T01:00:37.539Z,26.27
2019-03-06T01:03:07.072Z,16.00
2019-03-06T01:05:35.740Z,20.70
2019-03-06T01:08:04.370Z,15.20
2019-03-06T01:10:35.726Z,15.00
2019-03-06T01:13:04.427Z,16.27
2019-03-06T01:15:33.237Z,16.33
2019-03-06T01:18:01.880Z,21.17
2019-03-06T01:20:30.558Z,23.00
2019-03-06T01:22:59.228Z,24.23
2019-03-06T01:25:27.854Z,24.43
2019-03-06T01:27:56.767Z,23.40
2019-03-06T01:30:26.738Z,24.00
2019-03-06T01:33:13.422Z,23.93
2019-03-06T01:35:43.690Z,22.77
2019-03-06T01:38:23.024Z,21.87
2019-03-06T01:40:56.243Z,22.00
2019-03-06T01:43:41.368Z,21.33
2019-03-06T01:46:10.064Z,21.23
2019-03-06T01:48:38.680Z,20.57
2019-03-06T01:51:07.302Z,20.20
2019-03-06T01:53:35.852Z,19.17
2019-03-06T01:56:04.473Z,19.13
2019-03-06T01:58:33.039Z,20.17
2019-03-06T02:01:01.609Z,21.03
2019-03-06T02:03:30.244Z,21.60
2019-03-06T02:05:58.918Z,20.93
2019-03-06T02:08:30.640Z,23.03
2019-03-06T02:10:59.272Z,23.50
2019-03-06T02:13:27.958Z,21.37
2019-03-06T02:15:56.630Z,20.27
2019-03-06T02:18:25.254Z,19.47
2019-03-06T02:20:53.855Z,18.00
2019-03-06T02:23:22.416Z,17.37
2019-03-06T02:25:51.101Z,17.80
2019-03-06T02:28:19.730Z,14.27
2019-03-06T02:30:48.362Z,11.70
2019-03-06T02:33:16.933Z,10.83
2019-03-06T02:35:45.492Z,12.77
2019-03-06T02:38:14.093Z,13.07
2019-03-06T02:40:42.653Z,13.07
2019-03-06T02:43:11.334Z,13.40
2019-03-06T02:45:39.964Z,13.27
2019-03-06T02:48:08.862Z,14.27
2019-03-06T02:50:37.538Z,16.20
2019-03-06T02:53:06.175Z,14.63
2019-03-06T02:55:34.843Z,12.03
2019-03-06T02:58:13.913Z,12.43
2019-03-06T03:00:50.307Z,13.07
2019-03-06T03:03:32.543Z,13.07
2019-03-06T03:06:02.790Z,12.87
2019-03-06T03:08:31.493Z,12.00
2019-03-06T03:11:00.087Z,11.87
2019-03-06T03:13:28.724Z,10.83
2019-03-06T03:15:57.355Z,12.50
2019-03-06T03:18:25.992Z,11.37
2019-03-06T03:20:54.843Z,11.77
2019-03-06T03:23:23.401Z,12.40
2019-03-06T03:25:52.036Z,14.00
2019-03-06T03:28:20.568Z,13.50
2019-03-06T03:30:49.127Z,13.67
2019-03-06T03:33:17.962Z,13.83
2019-03-06T03:35:46.597Z,13.40
2019-03-06T03:38:15.230Z,13.83
2019-03-06T03:40:43.732Z,12.20
2019-03-06T03:43:12.362Z,12.37
2019-03-06T03:45:41.006Z,13.53
2019-03-06T03:48:09.901Z,14.10
2019-03-06T03:50:38.533Z,13.33
2019-03-06T03:53:07.093Z,12.83
2019-03-06T03:55:35.731Z,11.93
2019-03-06T03:58:04.420Z,10.57
2019-03-06T04:00:33.044Z,9.70
2019-03-06T04:03:01.734Z,10.87
2019-03-06T04:05:30.390Z,10.30
2019-03-06T04:07:58.942Z,11.90
2019-03-06T04:10:27.582Z,12.60
2019-03-06T04:12:56.208Z,12.70
2019-03-06T04:15:24.956Z,13.00
2019-03-06T04:17:53.518Z,13.67
2019-03-06T04:20:22.120Z,15.73
2019-03-06T04:22:50.674Z,15.43
2019-03-06T04:25:19.349Z,15.70
2019-03-06T04:27:48.242Z,15.53
2019-03-06T04:30:21.512Z,16.90
2019-03-06T04:32:50.063Z,17.80
2019-03-06T04:35:18.736Z,17.47
2019-03-06T04:37:47.257Z,16.70
2019-03-06T04:40:16.214Z,14.53
2019-03-06T04:42:44.816Z,13.83
2019-03-06T04:45:17.631Z,12.80
2019-03-06T04:47:46.306Z,13.30
2019-03-06T04:50:15.499Z,13.90
2019-03-06T04:52:44.394Z,13.63
2019-03-06T04:55:14.275Z,15.53
2019-03-06T04:57:42.896Z,15.87
2019-03-06T05:00:19.611Z,13.60
2019-03-06T05:02:48.174Z,13.10
2019-03-06T05:05:16.822Z,12.37
2019-03-06T05:07:45.486Z,11.90
2019-03-06T05:10:14.715Z,12.10
2019-03-06T05:12:43.288Z,12.33
2019-03-06T05:15:18.500Z,14.77
2019-03-06T05:17:54.797Z,17.43
2019-03-06T05:20:23.402Z,16.00
2019-03-06T05:22:51.962Z,14.77
2019-03-06T05:25:20.529Z,13.57
2019-03-06T05:27:49.209Z,14.80
2019-03-06T05:30:19.704Z,14.83
2019-03-06T05:32:50.359Z,17.33
2019-03-06T05:35:24.695Z,18.27
2019-03-06T05:38:14.732Z,16.30
2019-03-06T05:40:43.405Z,17.37
2019-03-06T05:43:12.085Z,17.67
2019-03-06T05:45:40.737Z,17.63
2019-03-06T05:48:09.342Z,16.43
2019-03-06T05:50:38.022Z,18.47
2019-03-06T05:53:06.805Z,16.53
2019-03-06T05:55:35.400Z,15.80
2019-03-06T05:58:04.077Z,15.63
2019-03-06T06:00:32.741Z,19.10
2019-03-06T06:03:01.405Z,20.83
2019-03-06T06:05:30.053Z,23.27
2019-03-06T06:07:58.653Z,18.70
2019-03-06T06:10:27.337Z,19.53
2019-03-06T06:12:56.059Z,18.10
2019-03-06T06:15:24.723Z,18.07
2019-03-06T06:17:53.473Z,15.80
2019-03-06T06:20:22.233Z,15.23
2019-03-06T06:22:58.804Z,12.63
2019-03-06T06:25:31.935Z,13.70
2019-03-06T06:28:00.758Z,15.47
2019-03-06T06:30:29.445Z,16.07
2019-03-06T06:32:58.092Z,13.73
2019-03-06T06:35:27.195Z,9.60
2019-03-06T06:37:55.982Z,8.30
2019-03-06T06:40:24.708Z,8.20
2019-03-06T06:42:53.544Z,8.63
2019-03-06T06:45:22.243Z,9.10
2019-03-06T06:48:10.097Z,9.17
2019-03-06T06:50:44.436Z,10.87
2019-03-06T06:53:35.282Z,10.90
2019-03-06T06:56:27.306Z,12.00
2019-03-06T06:59:21.802Z,9.70
2019-03-06T07:02:20.995Z,10.37
2019-03-06T07:05:30.146Z,10.90
2019-03-06T07:08:12.613Z,10.97
2019-03-06T07:10:42.971Z,10.90
2019-03-06T07:13:15.995Z,10.57
2019-03-06T07:15:57.997Z,10.17
2019-03-06T07:18:44.709Z,10.83
2019-03-06T07:21:15.102Z,9.47
2019-03-06T07:23:48.204Z,8.80
2019-03-06T07:26:21.342Z,8.50
2019-03-06T07:28:52.627Z,7.30
2019-03-06T07:31:27.252Z,6.50
2019-03-06T07:34:10.424Z,6.90
2019-03-06T07:36:46.748Z,7.77
2019-03-06T07:39:19.581Z,7.40
2019-03-06T07:41:52.906Z,8.10
2019-03-06T07:44:39.732Z,8.20
2019-03-06T07:47:22.412Z,7.77
2019-03-06T07:49:55.655Z,7.90
2019-03-06T07:52:32.073Z,8.10
2019-03-06T07:55:18.892Z,8.60
2019-03-06T07:58:23.433Z,8.50
2019-03-06T08:00:53.631Z,7.83
2019-03-06T08:03:22.260Z,8.90
2019-03-06T08:05:50.932Z,11.77
2019-03-06T08:08:19.619Z,9.10
2019-03-06T08:10:51.044Z,8.07
2019-03-06T08:13:24.315Z,8.63
2019-03-06T08:15:57.225Z,8.50
2019-03-06T08:18:38.113Z,7.03
2019-03-06T08:21:11.501Z,8.07
2019-03-06T08:23:43.764Z,8.43
2019-03-06T08:26:13.368Z,8.60
2019-03-06T08:28:42.616Z,6.83
2019-03-06T08:31:16.713Z,9.00
2019-03-06T08:33:45.758Z,7.93
2019-03-06T08:36:15.806Z,8.20
2019-03-06T08:38:46.632Z,7.40
2019-03-06T08:41:19.101Z,7.70
2019-03-06T08:43:49.245Z,8.83
2019-03-06T08:46:32.371Z,8.23
2019-03-06T08:49:10.237Z,7.97
2019-03-06T08:51:40.583Z,8.57
2019-03-06T08:54:23.223Z,8.80
2019-03-06T08:56:59.377Z,8.90
2019-03-06T08:59:38.733Z,8.47
2019-03-06T09:02:15.558Z,7.73
2019-03-06T09:04:44.245Z,7.80
2019-03-06T09:07:31.405Z,6.80
2019-03-06T09:10:11.033Z,7.40
2019-03-06T09:12:50.586Z,6.80
2019-03-06T09:15:36.845Z,6.10
2019-03-06T09:18:24.159Z,7.17
2019-03-06T09:21:00.607Z,7.53
2019-03-06T09:23:47.228Z,8.73
2019-03-06T09:26:17.594Z,9.50
2019-03-06T09:28:51.081Z,9.17
2019-03-06T09:31:27.570Z,10.50
2019-03-06T09:34:03.798Z,14.97
2019-03-06T09:36:34.109Z,15.90
2019-03-06T09:39:04.603Z,12.03
2019-03-06T09:41:37.883Z,10.83
2019-03-06T09:44:08.465Z,8.50
2019-03-06T09:46:54.435Z,9.73
2019-03-06T09:49:29.389Z,9.10
2019-03-06T09:52:09.084Z,7.87
2019-03-06T09:54:45.196Z,8.63
2019-03-06T09:57:15.794Z,8.93
2019-03-06T09:59:55.154Z,8.83
2019-03-06T10:02:37.884Z,8.40
2019-03-06T10:05:09.358Z,8.13
2019-03-06T10:07:55.886Z,7.17
2019-03-06T10:10:26.155Z,7.03
2019-03-06T10:12:56.473Z,7.77
2019-03-06T10:15:26.737Z,6.63
2019-03-06T10:17:57.055Z,7.67
2019-03-06T10:20:26.154Z,8.50
2019-03-06T10:22:59.472Z,6.57
2019-03-06T10:25:29.956Z,7.00
2019-03-06T10:28:06.674Z,5.93
2019-03-06T10:30:34.715Z,5.10
2019-03-06T10:33:03.496Z,5.10
2019-03-06T10:35:32.523Z,6.20
2019-03-06T10:38:01.612Z,6.20
2019-03-06T10:40:33.240Z,6.43
2019-03-06T10:43:02.171Z,5.57
2019-03-06T10:45:30.922Z,6.43
2019-03-06T10:48:00.037Z,6.30
2019-03-06T10:50:30.089Z,7.30
2019-03-06T10:52:59.307Z,6.80
2019-03-06T10:55:28.489Z,4.97
2019-03-06T10:57:57.443Z,5.33
2019-03-06T11:00:30.843Z,5.23
2019-03-06T11:02:59.950Z,5.00
2019-03-06T11:05:32.231Z,3.80
2019-03-06T11:08:01.695Z,4.20
2019-03-06T11:10:32.801Z,3.50
2019-03-06T11:13:03.787Z,3.70
2019-03-06T11:15:32.853Z,3.67
2019-03-06T11:18:01.882Z,3.90
2019-03-06T11:20:35.450Z,3.73
2019-03-06T11:23:10.121Z,3.20
2019-03-06T11:25:40.615Z,2.45
2019-03-06T11:28:12.206Z,2.52
2019-03-06T11:30:55.952Z,2.72
2019-03-06T11:33:26.606Z,2.33
2019-03-06T11:35:58.249Z,3.22
2019-03-06T11:38:27.924Z,2.90
2019-03-06T11:40:57.591Z,2.37
2019-03-06T11:43:29.512Z,2.85
2019-03-06T11:46:05.741Z,2.95
2019-03-06T11:48:36.354Z,2.98
2019-03-06T11:51:07.869Z,2.62
2019-03-06T11:53:36.837Z,2.72
2019-03-06T11:56:06.686Z,2.60
2019-03-06T11:58:35.692Z,2.55
2019-03-06T12:01:07.637Z,2.77
2019-03-06T12:03:39.837Z,2.85
2019-03-06T12:06:08.578Z,3.15
2019-03-06T12:08:45.573Z,2.52
2019-03-06T12:11:08.093Z,2.12
2019-03-06T12:13:37.048Z,2.55
2019-03-06T12:16:06.042Z,1.62
2019-03-06T12:18:34.876Z,1.87
2019-03-06T12:21:03.570Z,2.00
2019-03-06T12:23:33.809Z,1.47
2019-03-06T12:26:02.754Z,1.85
2019-03-06T12:28:33.256Z,1.40
2019-03-06T12:31:02.476Z,1.17
2019-03-06T12:33:31.455Z,1.37
2019-03-06T12:36:01.915Z,1.60
2019-03-06T12:38:30.882Z,1.42
2019-03-06T12:41:05.757Z,1.50
2019-03-06T12:43:36.747Z,1.30
2019-03-06T12:46:23.940Z,2.22
2019-03-06T12:48:57.356Z,1.47
2019-03-06T12:51:26.131Z,1.70
2019-03-06T12:53:55.003Z,2.10
2019-03-06T12:56:25.238Z,1.50
2019-03-06T12:58:54.026Z,1.92
2019-03-06T13:01:22.756Z,2.00
2019-03-06T13:03:51.606Z,2.75
2019-03-06T13:08:51.061Z,1.72
2019-03-06T13:11:20.025Z,2.10
2019-03-06T13:13:48.661Z,1.83
2019-03-06T13:16:23.953Z,2.30
2019-03-06T13:18:54.540Z,1.27
2019-03-06T13:21:25.051Z,1.57
2019-03-06T13:23:57.091Z,1.67
2019-03-06T13:26:26.084Z,2.05
2019-03-06T13:28:57.585Z,1.70
2019-03-06T13:31:28.235Z,1.92
2019-03-06T13:34:01.337Z,1.90
2019-03-06T13:36:33.150Z,1.77
2019-03-06T13:39:06.277Z,1.67
2019-03-06T13:41:32.327Z,2.20
2019-03-06T13:44:01.219Z,1.72
2019-03-06T13:46:30.153Z,1.40
2019-03-06T13:48:58.996Z,1.50
2019-03-06T13:51:27.709Z,1.75
2019-03-06T13:53:56.713Z,1.55
2019-03-06T13:56:25.616Z,1.62
2019-03-06T13:58:54.349Z,1.45
2019-03-06T14:01:23.394Z,1.40
2019-03-06T14:03:53.416Z,1.27
2019-03-06T14:06:25.353Z,1.50
2019-03-06T14:08:55.635Z,1.50
2019-03-06T14:11:24.328Z,1.80
2019-03-06T14:13:52.991Z,1.17
2019-03-06T14:16:21.689Z,1.10
2019-03-06T14:18:50.455Z,1.77
2019-03-06T14:21:19.082Z,1.47
2019-03-06T14:23:47.894Z,3.70
2019-03-06T14:26:18.499Z,1.30
2019-03-06T14:28:49.766Z,1.22
2019-03-06T14:31:18.434Z,2.25
2019-03-06T14:33:46.978Z,2.10
2019-03-06T14:36:15.578Z,1.67
2019-03-06T14:38:44.121Z,1.52
2019-03-06T14:41:12.741Z,17.67
2019-03-06T14:43:44.193Z,3.52
2019-03-06T14:46:16.575Z,1.45
2019-03-06T14:48:43.182Z,1.70
2019-03-06T14:51:11.723Z,1.55
2019-03-06T14:53:40.407Z,1.85
2019-03-06T14:56:09.034Z,1.45
2019-03-06T14:58:37.561Z,1.30
2019-03-06T15:01:06.652Z,1.05
2019-03-06T15:03:35.314Z,1.32
2019-03-06T15:06:04.207Z,3.87
2019-03-06T15:08:32.811Z,1.50
2019-03-06T15:11:01.437Z,1.75
2019-03-06T15:13:30.063Z,1.92
2019-03-06T15:15:58.662Z,2.12
2019-03-06T15:18:27.214Z,1.55
2019-03-06T15:20:58.553Z,1.75
2019-03-06T15:23:27.176Z,1.30
2019-03-06T15:25:55.802Z,1.35
2019-03-06T15:28:24.400Z,1.35
2019-03-06T15:30:53.047Z,10.50
2019-03-06T15:33:21.924Z,1.82
2019-03-06T15:35:50.480Z,2.83
2019-03-06T15:38:19.085Z,1.72
2019-03-06T15:40:47.769Z,1.70
2019-03-06T15:43:17.458Z,1.30
2019-03-06T15:45:46.948Z,1.80
2019-03-06T15:48:15.627Z,1.45
2019-03-06T15:50:44.392Z,1.43
2019-03-06T15:53:23.915Z,1.40
2019-03-06T15:55:45.005Z,1.47
2019-03-06T15:58:13.735Z,1.50
2019-03-06T16:00:46.276Z,1.80
2019-03-06T16:03:13.807Z,1.70
2019-03-06T16:05:43.210Z,1.50
2019-03-06T16:08:13.434Z,1.83
2019-03-06T16:10:42.571Z,1.50
2019-03-06T16:13:11.196Z,1.40
2019-03-06T16:15:39.851Z,1.47
2019-03-06T16:18:09.771Z,1.57
2019-03-06T16:20:38.905Z,1.97
2019-03-06T16:23:07.866Z,1.80
2019-03-06T16:25:39.854Z,1.23
2019-03-06T16:28:07.308Z,1.57
2019-03-06T16:30:36.075Z,2.83
2019-03-06T16:33:04.813Z,1.77
2019-03-06T16:35:33.488Z,1.30
2019-03-06T16:38:02.042Z,1.10
2019-03-06T16:40:30.990Z,1.80
2019-03-06T16:42:59.616Z,1.77
2019-03-06T16:45:29.557Z,1.50
2019-03-06T16:47:58.327Z,2.10
2019-03-06T16:50:27.260Z,1.50
2019-03-06T16:52:56.010Z,2.70
2019-03-06T16:55:28.543Z,1.23
2019-03-06T16:57:57.688Z,2.20
2019-03-06T17:00:31.392Z,1.80
2019-03-06T17:03:01.972Z,1.50
2019-03-06T17:05:31.083Z,1.40
2019-03-06T17:08:00.103Z,1.43
2019-03-06T17:10:30.330Z,1.83
2019-03-06T17:12:59.495Z,2.17
2019-03-06T17:15:29.610Z,4.67
2019-03-06T17:17:58.232Z,5.13
2019-03-06T17:20:31.432Z,5.90
2019-03-06T17:23:00.137Z,5.30
2019-03-06T17:25:29.208Z,6.83
2019-03-06T17:27:58.076Z,8.90
2019-03-06T17:30:28.424Z,13.43
2019-03-06T17:33:02.638Z,21.07
2019-03-06T17:35:32.820Z,23.40
2019-03-06T17:38:01.692Z,29.97
2019-03-06T17:40:30.622Z,25.43
2019-03-06T17:42:59.595Z,30.00
2019-03-06T17:45:28.434Z,45.77
2019-03-06T17:47:57.181Z,35.20
2019-03-06T17:50:26.222Z,66.63
2019-03-06T17:52:55.317Z,42.67
2019-03-06T17:55:24.053Z,41.40
2019-03-06T17:57:52.694Z,43.67
2019-03-06T18:00:31.487Z,24.33
2019-03-06T18:03:00.742Z,38.63
2019-03-06T18:05:29.386Z,36.57
2019-03-06T18:07:58.055Z,36.80
2019-03-06T18:10:26.892Z,24.47
2019-03-06T18:12:58.740Z,38.10
2019-03-06T18:15:27.671Z,32.80
2019-03-06T18:17:56.295Z,29.93
2019-03-06T18:20:24.914Z,35.10
2019-03-06T18:22:55.170Z,34.20
2019-03-06T18:25:25.489Z,28.13
2019-03-06T18:27:54.124Z,25.77
2019-03-06T18:30:23.245Z,26.20
2019-03-06T18:32:51.864Z,29.10
2019-03-06T18:35:22.219Z,40.57
2019-03-06T18:37:51.226Z,39.73
2019-03-06T18:40:24.607Z,33.00
2019-03-06T18:42:54.878Z,36.77
2019-03-06T18:45:23.992Z,31.43
2019-03-06T18:47:52.540Z,26.67
2019-03-06T18:50:22.411Z,26.07
2019-03-06T18:52:56.756Z,23.53
2019-03-06T18:55:26.346Z,25.57
2019-03-06T18:57:58.011Z,27.20
2019-03-06T19:00:28.142Z,26.40
2019-03-06T19:02:56.786Z,20.17
2019-03-06T19:05:25.462Z,21.43
2019-03-06T19:07:54.100Z,24.20
2019-03-06T19:10:23.747Z,24.17
2019-03-06T19:12:52.601Z,25.97
2019-03-06T19:15:26.438Z,26.57
2019-03-06T19:17:55.116Z,33.40
2019-03-06T19:20:24.053Z,57.97
2019-03-06T19:22:53.492Z,50.10
2019-03-06T19:25:22.113Z,31.73
2019-03-06T19:27:50.970Z,25.53
2019-03-06T19:30:21.861Z,20.40
2019-03-06T19:32:53.290Z,14.00
2019-03-06T19:35:23.259Z,13.90
2019-03-06T19:37:55.102Z,11.07
2019-03-06T19:40:24.219Z,11.73
2019-03-06T19:42:52.866Z,10.70
2019-03-06T19:45:25.600Z,12.83
2019-03-06T19:47:54.237Z,13.87
2019-03-06T19:50:25.868Z,13.70
2019-03-06T19:52:54.864Z,11.50
2019-03-06T19:55:23.729Z,10.30
2019-03-06T19:57:59.942Z,10.80
2019-03-06T20:00:30.319Z,9.13
2019-03-06T20:02:59.647Z,9.33
2019-03-06T20:05:41.238Z,10.80
2019-03-06T20:08:12.517Z,11.43
2019-03-06T20:10:41.584Z,11.13
2019-03-06T20:13:11.017Z,9.87
2019-03-06T20:15:40.761Z,13.90
2019-03-06T20:18:09.499Z,16.53
2019-03-06T20:20:38.138Z,14.10
2019-03-06T20:23:06.922Z,13.80
2019-03-06T20:25:37.161Z,13.07
2019-03-06T20:28:06.012Z,12.37
2019-03-06T20:30:34.787Z,11.33
2019-03-06T20:33:03.569Z,11.77
2019-03-06T20:35:32.213Z,10.60
2019-03-06T20:38:00.927Z,11.30
2019-03-06T20:40:29.620Z,11.60
2019-03-06T20:43:01.436Z,12.33
2019-03-06T20:45:30.072Z,9.93
2019-03-06T20:47:58.742Z,9.93
2019-03-06T20:50:27.302Z,9.30
2019-03-06T20:52:56.146Z,9.70
2019-03-06T20:55:24.772Z,9.67
2019-03-06T20:57:53.735Z,12.40
2019-03-06T21:00:25.243Z,10.70
2019-03-06T21:02:53.847Z,9.33
2019-03-06T21:05:22.568Z,10.47
2019-03-06T21:07:51.244Z,10.90
2019-03-06T21:10:20.640Z,8.43
2019-03-06T21:12:49.274Z,8.40
2019-03-06T21:15:20.801Z,7.83
2019-03-06T21:17:49.474Z,8.13
2019-03-06T21:20:22.478Z,7.73
2019-03-06T21:22:51.147Z,6.13
2019-03-06T21:25:20.671Z,6.40
2019-03-06T21:27:49.623Z,6.07
2019-03-06T21:30:36.394Z,6.63
2019-03-06T21:33:05.136Z,4.93
2019-03-06T21:35:33.746Z,5.00
2019-03-06T21:38:02.382Z,5.80
2019-03-06T21:40:31.359Z,4.77
2019-03-06T21:43:00.452Z,5.30
2019-03-06T21:45:29.261Z,4.30
2019-03-06T21:47:57.918Z,4.67
2019-03-06T21:50:26.451Z,5.47
2019-03-06T21:52:55.098Z,5.17
2019-03-06T21:55:23.730Z,5.43
2019-03-06T21:57:52.357Z,5.07
2019-03-06T22:00:24.384Z,5.27
2019-03-06T22:02:53.139Z,4.67
2019-03-06T22:05:21.937Z,5.07
2019-03-06T22:07:51.418Z,4.80
2019-03-06T22:10:20.328Z,6.13
2019-03-06T22:12:48.963Z,6.00
2019-03-06T22:15:22.510Z,5.80
2019-03-06T22:17:51.059Z,6.43
2019-03-06T22:20:19.722Z,6.20
2019-03-06T22:22:48.288Z,5.17
2019-03-06T22:25:18.091Z,4.77
2019-03-06T22:27:46.772Z,6.73
2019-03-06T22:30:23.185Z,6.40
2019-03-06T22:32:51.847Z,7.20
2019-03-06T22:35:20.460Z,6.60
2019-03-06T22:37:49.135Z,7.83
2019-03-06T22:40:19.811Z,8.87
2019-03-06T22:42:48.574Z,8.67
2019-03-06T22:45:21.141Z,9.20
2019-03-06T22:47:49.813Z,9.37
2019-03-06T22:50:19.288Z,11.10
2019-03-06T22:52:47.938Z,11.97
2019-03-06T22:55:20.778Z,15.73
2019-03-06T22:57:52.236Z,20.37
2019-03-06T23:00:34.584Z,23.10
2019-03-06T23:03:03.483Z,27.70
2019-03-06T23:05:36.410Z,28.00
2019-03-06T23:08:05.039Z,28.80
2019-03-06T23:10:33.711Z,26.20
2019-03-06T23:13:02.356Z,26.87
2019-03-06T23:15:30.971Z,25.60
2019-03-06T23:17:59.785Z,47.90
2019-03-06T23:20:28.460Z,50.13
2019-03-06T23:22:57.033Z,31.93
2019-03-06T23:25:25.706Z,28.60
2019-03-06T23:27:54.340Z,25.67
2019-03-06T23:30:22.945Z,25.37
2019-03-06T23:32:51.734Z,23.43
2019-03-06T23:35:20.266Z,18.47
2019-03-06T23:37:48.961Z,17.70
2019-03-06T23:40:17.607Z,16.53
2019-03-06T23:42:47.985Z,16.87
2019-03-06T23:45:16.636Z,16.67
2019-03-06T23:47:45.244Z,16.73
2019-03-06T23:50:14.176Z,17.57
2019-03-06T23:53:03.719Z,18.70
2019-03-06T23:55:33.035Z,16.60
2019-03-06T23:58:01.709Z,15.83
